PWSweather.com
Personal Weather Stations
Station Observations
KMOHERMA2
Stony Hill, Hermann, MO 65041

Stony HillHermann, MO 65041

Lat: 38.527, Lon: -91.414

Elevation: 896

Station Type: Davis Vantage Pro 2

High Low Average
Temperature 57.4°F14.1°C 37.7°F3.2°C 47.3°F8.5°C
Dew Point 52.3°F11.3°C 30.9°F-0.6°C 38.7°F3.7°C
Winds 33.0 mph 53.1 kmh Calm Calm 9.0 mph SW14.5 kmh SW
Wind Gusts 44.0 mph70.8 kmh -- 4.0 mph6.4 kmh
Humidity 88% 60% 72%
Pressure 29.91 in1012.9 mb 29.34 in993.6 mb -
Precipitation 0.04 in1.0 mm - -
Hour Temp Dew Point Humidity Winds Wind Gusts Pressure Precip Precip Rate Daily Precip Total
12:00 AM 53.4°F11.9°C 49.1°F9.5°C 85% Calm Calm -- 29.48 in998.3 mb 0.00 in0.0 mm 0.00 in0.0 mm 0.00 in0.0 mm
12:05 AM 53.4°F11.9°C 49.1°F9.5°C 85% Calm Calm -- 29.47 in998.0 mb 0.00 in0.0 mm 0.00 in0.0 mm 0.00 in0.0 mm
12:10 AM 53.4°F11.9°C 48.7°F9.3°C 84% Calm Calm -- 29.47 in998.0 mb 0.00 in0.0 mm 0.00 in0.0 mm 0.00 in0.0 mm
12:15 AM 53.3°F11.8°C 48.9°F9.4°C 85% Calm Calm -- 29.47 in998.0 mb 0.00 in0.0 mm 0.00 in0.0 mm 0.00 in0.0 mm
12:20 AM 53.3°F11.8°C 48.9°F9.4°C 85% Calm Calm -- 29.47 in998.0 mb 0.00 in0.0 mm 0.00 in0.0 mm 0.00 in0.0 mm
12:25 AM 53.2°F11.8°C 48.9°F9.4°C 85% Calm Calm -- 29.47 in998.0 mb 0.00 in0.0 mm 0.00 in0.0 mm 0.00 in0.0 mm
12:30 AM 53.2°F11.8°C 48.6°F9.2°C 84% Calm Calm -- 29.47 in998.0 mb 0.00 in0.0 mm 0.00 in0.0 mm 0.00 in0.0 mm
12:35 AM 53.2°F11.8°C 48.6°F9.2°C 84% Calm Calm -- 29.47 in998.0 mb 0.00 in0.0 mm 0.00 in0.0 mm 0.00 in0.0 mm
12:40 AM 53.1°F11.7°C 48.4°F9.1°C 84% Calm Calm -- 29.46 in997.6 mb 0.00 in0.0 mm 0.00 in0.0 mm 0.00 in0.0 mm
12:45 AM 53.0°F11.7°C 48.4°F9.1°C 84% Calm Calm -- 29.46 in997.6 mb 0.00 in0.0 mm 0.00 in0.0 mm 0.00 in0.0 mm
12:50 AM 53.0°F11.7°C 48.4°F9.1°C 84% Calm Calm -- 29.46 in997.6 mb 0.00 in0.0 mm 0.00 in0.0 mm 0.00 in0.0 mm
12:55 AM 52.9°F11.6°C 48.2°F9.0°C 84% Calm Calm -- 29.46 in997.6 mb 0.00 in0.0 mm 0.00 in0.0 mm 0.00 in0.0 mm
01:00 AM 52.8°F11.6°C 48.2°F9.0°C 84% Calm Calm -- 29.46 in997.6 mb 0.00 in0.0 mm 0.00 in0.0 mm 0.00 in0.0 mm
01:05 AM 52.9°F11.6°C 48.2°F9.0°C 84% Calm Calm -- 29.45 in997.3 mb 0.00 in0.0 mm 0.00 in0.0 mm 0.00 in0.0 mm
01:10 AM 53.0°F11.7°C 48.4°F9.1°C 84% Calm Calm -- 29.45 in997.3 mb 0.00 in0.0 mm 0.00 in0.0 mm 0.00 in0.0 mm
01:15 AM 53.2°F11.8°C 48.2°F9.0°C 83% Calm Calm -- 29.45 in997.3 mb 0.00 in0.0 mm 0.00 in0.0 mm 0.00 in0.0 mm
01:20 AM 53.3°F11.8°C 48.2°F9.0°C 83% Calm Calm -- 29.45 in997.3 mb 0.00 in0.0 mm 0.00 in0.0 mm 0.00 in0.0 mm
01:25 AM 53.4°F11.9°C 48.0°F8.9°C 82% Calm Calm -- 29.45 in997.3 mb 0.00 in0.0 mm 0.00 in0.0 mm 0.00 in0.0 mm
01:30 AM 53.4°F11.9°C 48.0°F8.9°C 82% Calm Calm -- 29.45 in997.3 mb 0.00 in0.0 mm 0.00 in0.0 mm 0.00 in0.0 mm
01:35 AM 53.5°F11.9°C 48.0°F8.9°C 82% Calm Calm -- 29.45 in997.3 mb 0.00 in0.0 mm 0.00 in0.0 mm 0.00 in0.0 mm
01:40 AM 53.4°F11.9°C 48.0°F8.9°C 82% Calm Calm -- 29.45 in997.3 mb 0.00 in0.0 mm 0.00 in0.0 mm 0.00 in0.0 mm
01:45 AM 53.3°F11.8°C 48.2°F9.0°C 83% Calm Calm -- 29.45 in997.3 mb 0.00 in0.0 mm 0.00 in0.0 mm 0.00 in0.0 mm
01:50 AM 53.2°F11.8°C 48.2°F9.0°C 83% Calm Calm -- 29.45 in997.3 mb 0.00 in0.0 mm 0.00 in0.0 mm 0.00 in0.0 mm
01:55 AM 53.2°F11.8°C 48.6°F9.2°C 84% Calm Calm -- 29.45 in997.3 mb 0.00 in0.0 mm 0.00 in0.0 mm 0.00 in0.0 mm
02:00 AM 53.1°F11.7°C 48.4°F9.1°C 84% Calm Calm -- 29.45 in997.3 mb 0.00 in0.0 mm 0.00 in0.0 mm 0.00 in0.0 mm
02:05 AM 53.1°F11.7°C 48.4°F9.1°C 84% Calm Calm -- 29.44 in997.0 mb 0.00 in0.0 mm 0.00 in0.0 mm 0.00 in0.0 mm
02:10 AM 53.0°F11.7°C 48.4°F9.1°C 84% Calm Calm -- 29.44 in997.0 mb 0.00 in0.0 mm 0.00 in0.0 mm 0.00 in0.0 mm
02:15 AM 53.0°F11.7°C 48.4°F9.1°C 84% Calm Calm -- 29.44 in997.0 mb 0.00 in0.0 mm 0.00 in0.0 mm 0.00 in0.0 mm
02:20 AM 53.0°F11.7°C 48.4°F9.1°C 84% Calm Calm -- 29.44 in997.0 mb 0.00 in0.0 mm 0.00 in0.0 mm 0.00 in0.0 mm
02:25 AM 53.0°F11.7°C 48.0°F8.9°C 83% Calm Calm -- 29.44 in997.0 mb 0.00 in0.0 mm 0.00 in0.0 mm 0.00 in0.0 mm
02:30 AM 53.1°F11.7°C 48.0°F8.9°C 83% Calm Calm -- 29.43 in996.6 mb 0.00 in0.0 mm 0.00 in0.0 mm 0.00 in0.0 mm
02:35 AM 53.0°F11.7°C 47.7°F8.7°C 82% Calm Calm -- 29.43 in996.6 mb 0.00 in0.0 mm 0.00 in0.0 mm 0.00 in0.0 mm
02:40 AM 53.0°F11.7°C 47.7°F8.7°C 82% Calm Calm -- 29.43 in996.6 mb 0.00 in0.0 mm 0.00 in0.0 mm 0.00 in0.0 mm
02:45 AM 52.9°F11.6°C 47.5°F8.6°C 82% Calm Calm -- 29.43 in996.6 mb 0.00 in0.0 mm 0.00 in0.0 mm 0.00 in0.0 mm
02:50 AM 52.8°F11.6°C 47.5°F8.6°C 82% Calm Calm -- 29.43 in996.6 mb 0.00 in0.0 mm 0.00 in0.0 mm 0.00 in0.0 mm
02:55 AM 52.7°F11.5°C 47.3°F8.5°C 82% Calm Calm -- 29.43 in996.6 mb 0.00 in0.0 mm 0.00 in0.0 mm 0.00 in0.0 mm
03:00 AM 52.6°F11.4°C 47.1°F8.4°C 82% Calm Calm -- 29.43 in996.6 mb 0.00 in0.0 mm 0.00 in0.0 mm 0.00 in0.0 mm
03:05 AM 52.5°F11.4°C 47.1°F8.4°C 82% Calm Calm -- 29.43 in996.6 mb 0.00 in0.0 mm 0.00 in0.0 mm 0.00 in0.0 mm
03:10 AM 52.4°F11.3°C 46.9°F8.3°C 82% Calm Calm -- 29.43 in996.6 mb 0.00 in0.0 mm 0.00 in0.0 mm 0.00 in0.0 mm
03:15 AM 52.3°F11.3°C 46.9°F8.3°C 82% Calm Calm -- 29.43 in996.6 mb 0.00 in0.0 mm 0.00 in0.0 mm 0.00 in0.0 mm
03:20 AM 52.3°F11.3°C 46.9°F8.3°C 82% Calm Calm -- 29.43 in996.6 mb 0.00 in0.0 mm 0.00 in0.0 mm 0.00 in0.0 mm
03:25 AM 52.3°F11.3°C 46.8°F8.2°C 81% Calm Calm -- 29.43 in996.6 mb 0.00 in0.0 mm 0.00 in0.0 mm 0.00 in0.0 mm
03:40 AM 52.8°F11.6°C 46.6°F8.1°C 79% Calm Calm -- 29.42 in996.3 mb 0.00 in0.0 mm 0.00 in0.0 mm 0.00 in0.0 mm
03:45 AM 52.9°F11.6°C 46.2°F7.9°C 78% Calm Calm -- 29.42 in996.3 mb 0.00 in0.0 mm 0.00 in0.0 mm 0.00 in0.0 mm
03:50 AM 53.0°F11.7°C 46.4°F8.0°C 78% Calm Calm -- 29.42 in996.3 mb 0.00 in0.0 mm 0.00 in0.0 mm 0.00 in0.0 mm
03:55 AM 53.2°F11.8°C 46.2°F7.9°C 77% Calm Calm -- 29.42 in996.3 mb 0.00 in0.0 mm 0.00 in0.0 mm 0.00 in0.0 mm
04:00 AM 53.7°F12.1°C 46.0°F7.8°C 75% Calm Calm -- 29.42 in996.3 mb 0.00 in0.0 mm 0.00 in0.0 mm 0.00 in0.0 mm
04:05 AM 54.1°F12.3°C 46.4°F8.0°C 75% Calm Calm -- 29.42 in996.3 mb 0.00 in0.0 mm 0.00 in0.0 mm 0.00 in0.0 mm
04:10 AM 54.3°F12.4°C 46.2°F7.9°C 74% Calm Calm -- 29.41 in995.9 mb 0.00 in0.0 mm 0.00 in0.0 mm 0.00 in0.0 mm
04:15 AM 54.5°F12.5°C 46.0°F7.8°C 73% Calm Calm -- 29.42 in996.3 mb 0.00 in0.0 mm 0.00 in0.0 mm 0.00 in0.0 mm
04:20 AM 54.7°F12.6°C 46.2°F7.9°C 73% Calm Calm -- 29.41 in995.9 mb 0.00 in0.0 mm 0.00 in0.0 mm 0.00 in0.0 mm
04:25 AM 54.8°F12.7°C 46.4°F8.0°C 73% Calm Calm -- 29.41 in995.9 mb 0.00 in0.0 mm 0.00 in0.0 mm 0.00 in0.0 mm
04:30 AM 54.8°F12.7°C 46.4°F8.0°C 73% Calm Calm -- 29.41 in995.9 mb 0.00 in0.0 mm 0.00 in0.0 mm 0.00 in0.0 mm
04:35 AM 54.7°F12.6°C 46.2°F7.9°C 73% Calm Calm -- 29.40 in995.6 mb 0.00 in0.0 mm 0.00 in0.0 mm 0.00 in0.0 mm
04:40 AM 54.6°F12.6°C 46.6°F8.1°C 74% Calm Calm -- 29.40 in995.6 mb 0.00 in0.0 mm 0.00 in0.0 mm 0.00 in0.0 mm
04:45 AM 54.5°F12.5°C 46.0°F7.8°C 73% Calm Calm -- 29.40 in995.6 mb 0.00 in0.0 mm 0.00 in0.0 mm 0.00 in0.0 mm
04:50 AM 54.5°F12.5°C 46.0°F7.8°C 73% Calm Calm -- 29.40 in995.6 mb 0.00 in0.0 mm 0.00 in0.0 mm 0.00 in0.0 mm
04:55 AM 54.5°F12.5°C 46.0°F7.8°C 73% Calm Calm -- 29.40 in995.6 mb 0.00 in0.0 mm 0.00 in0.0 mm 0.00 in0.0 mm
05:00 AM 54.4°F12.4°C 45.9°F7.7°C 73% Calm Calm -- 29.40 in995.6 mb 0.00 in0.0 mm 0.00 in0.0 mm 0.00 in0.0 mm
05:05 AM 54.5°F12.5°C 46.0°F7.8°C 73% Calm Calm -- 29.39 in995.3 mb 0.00 in0.0 mm 0.00 in0.0 mm 0.00 in0.0 mm
05:10 AM 54.5°F12.5°C 46.0°F7.8°C 73% Calm Calm -- 29.39 in995.3 mb 0.00 in0.0 mm 0.00 in0.0 mm 0.00 in0.0 mm
05:15 AM 54.7°F12.6°C 46.2°F7.9°C 73% Calm Calm -- 29.39 in995.3 mb 0.00 in0.0 mm 0.00 in0.0 mm 0.00 in0.0 mm
05:20 AM 54.8°F12.7°C 46.4°F8.0°C 73% Calm Calm -- 29.38 in994.9 mb 0.00 in0.0 mm 0.00 in0.0 mm 0.00 in0.0 mm
05:25 AM 54.8°F12.7°C 46.4°F8.0°C 73% Calm Calm -- 29.38 in994.9 mb 0.00 in0.0 mm 0.00 in0.0 mm 0.00 in0.0 mm
05:30 AM 54.9°F12.7°C 46.4°F8.0°C 73% Calm Calm -- 29.38 in994.9 mb 0.00 in0.0 mm 0.00 in0.0 mm 0.00 in0.0 mm
05:35 AM 55.0°F12.8°C 46.6°F8.1°C 73% Calm Calm -- 29.39 in995.3 mb 0.00 in0.0 mm 0.00 in0.0 mm 0.00 in0.0 mm
05:40 AM 55.1°F12.8°C 46.6°F8.1°C 73% Calm Calm -- 29.38 in994.9 mb 0.00 in0.0 mm 0.00 in0.0 mm 0.00 in0.0 mm
05:45 AM 55.1°F12.8°C 46.9°F8.3°C 74% Calm Calm -- 29.37 in994.6 mb 0.00 in0.0 mm 0.00 in0.0 mm 0.00 in0.0 mm
05:50 AM 55.1°F12.8°C 46.9°F8.3°C 74% Calm Calm -- 29.37 in994.6 mb 0.00 in0.0 mm 0.00 in0.0 mm 0.00 in0.0 mm
05:55 AM 55.2°F12.9°C 47.1°F8.4°C 74% Calm Calm -- 29.38 in994.9 mb 0.00 in0.0 mm 0.00 in0.0 mm 0.00 in0.0 mm
06:00 AM 55.2°F12.9°C 47.1°F8.4°C 74% Calm Calm -- 29.37 in994.6 mb 0.00 in0.0 mm 0.00 in0.0 mm 0.00 in0.0 mm
06:05 AM 55.1°F12.8°C 47.3°F8.5°C 75% Calm Calm -- 29.37 in994.6 mb 0.00 in0.0 mm 0.00 in0.0 mm 0.00 in0.0 mm
06:10 AM 55.0°F12.8°C 47.7°F8.7°C 76% Calm Calm -- 29.37 in994.6 mb 0.00 in0.0 mm 0.00 in0.0 mm 0.00 in0.0 mm
06:15 AM 54.9°F12.7°C 47.8°F8.8°C 77% Calm Calm -- 29.36 in994.2 mb 0.00 in0.0 mm 0.00 in0.0 mm 0.00 in0.0 mm
06:20 AM 54.8°F12.7°C 47.8°F8.8°C 77% Calm Calm -- 29.36 in994.2 mb 0.00 in0.0 mm 0.00 in0.0 mm 0.00 in0.0 mm
06:25 AM 54.7°F12.6°C 48.0°F8.9°C 78% Calm Calm -- 29.35 in993.9 mb 0.00 in0.0 mm 0.00 in0.0 mm 0.00 in0.0 mm
06:30 AM 54.6°F12.6°C 48.4°F9.1°C 79% Calm Calm -- 29.35 in993.9 mb 0.00 in0.0 mm 0.00 in0.0 mm 0.00 in0.0 mm
06:35 AM 54.6°F12.6°C 48.6°F9.2°C 80% Calm Calm -- 29.34 in993.6 mb 0.00 in0.0 mm 0.00 in0.0 mm 0.00 in0.0 mm
06:40 AM 54.6°F12.6°C 48.6°F9.2°C 80% Calm Calm -- 29.35 in993.9 mb 0.00 in0.0 mm 0.00 in0.0 mm 0.00 in0.0 mm
06:45 AM 54.5°F12.5°C 48.7°F9.3°C 81% Calm Calm -- 29.36 in994.2 mb 0.00 in0.0 mm 0.00 in0.0 mm 0.00 in0.0 mm
06:50 AM 54.6°F12.6°C 48.9°F9.4°C 81% Calm Calm -- 29.36 in994.2 mb 0.00 in0.0 mm 0.00 in0.0 mm 0.00 in0.0 mm
06:55 AM 54.6°F12.6°C 49.3°F9.6°C 82% Calm Calm -- 29.36 in994.2 mb 0.00 in0.0 mm 0.00 in0.0 mm 0.00 in0.0 mm
07:00 AM 54.7°F12.6°C 49.3°F9.6°C 82% Calm Calm -- 29.36 in994.2 mb 0.00 in0.0 mm 0.00 in0.0 mm 0.00 in0.0 mm
07:05 AM 54.6°F12.6°C 49.3°F9.6°C 82% Calm Calm -- 29.36 in994.2 mb 0.00 in0.0 mm 0.00 in0.0 mm 0.00 in0.0 mm
07:10 AM 54.7°F12.6°C 49.3°F9.6°C 82% Calm Calm -- 29.36 in994.2 mb 0.00 in0.0 mm 0.00 in0.0 mm 0.00 in0.0 mm
07:15 AM 54.6°F12.6°C 49.6°F9.8°C 83% Calm Calm -- 29.36 in994.2 mb 0.00 in0.0 mm 0.00 in0.0 mm 0.00 in0.0 mm
07:20 AM 54.5°F12.5°C 49.5°F9.7°C 83% Calm Calm -- 29.36 in994.2 mb 0.00 in0.0 mm 0.00 in0.0 mm 0.00 in0.0 mm
07:25 AM 54.5°F12.5°C 49.5°F9.7°C 83% Calm Calm -- 29.36 in994.2 mb 0.00 in0.0 mm 0.00 in0.0 mm 0.00 in0.0 mm
07:30 AM 54.5°F12.5°C 49.8°F9.9°C 84% Calm Calm -- 29.36 in994.2 mb 0.00 in0.0 mm 0.00 in0.0 mm 0.00 in0.0 mm
07:35 AM 54.5°F12.5°C 49.8°F9.9°C 84% Calm Calm -- 29.35 in993.9 mb 0.00 in0.0 mm 0.00 in0.0 mm 0.00 in0.0 mm
07:40 AM 54.6°F12.6°C 50.0°F10.0°C 84% Calm Calm -- 29.36 in994.2 mb 0.00 in0.0 mm 0.00 in0.0 mm 0.00 in0.0 mm
07:45 AM 54.7°F12.6°C 50.2°F10.1°C 85% Calm Calm -- 29.35 in993.9 mb 0.00 in0.0 mm 0.00 in0.0 mm 0.00 in0.0 mm
07:50 AM 54.9°F12.7°C 50.4°F10.2°C 85% Calm Calm -- 29.36 in994.2 mb 0.00 in0.0 mm 0.00 in0.0 mm 0.00 in0.0 mm
07:55 AM 55.1°F12.8°C 50.5°F10.3°C 85% Calm Calm -- 29.35 in993.9 mb 0.00 in0.0 mm 0.00 in0.0 mm 0.00 in0.0 mm
08:00 AM 55.3°F12.9°C 50.7°F10.4°C 85% Calm Calm -- 29.35 in993.9 mb 0.00 in0.0 mm 0.00 in0.0 mm 0.00 in0.0 mm
08:05 AM 55.8°F13.2°C 51.3°F10.7°C 85% Calm Calm -- 29.35 in993.9 mb 0.00 in0.0 mm 0.00 in0.0 mm 0.00 in0.0 mm
08:10 AM 56.1°F13.4°C 51.6°F10.9°C 85% Calm Calm -- 29.36 in994.2 mb 0.00 in0.0 mm 0.00 in0.0 mm 0.00 in0.0 mm
08:15 AM 56.8°F13.8°C 52.0°F11.1°C 84% Calm Calm -- 29.35 in993.9 mb 0.00 in0.0 mm 0.00 in0.0 mm 0.00 in0.0 mm
08:20 AM 57.1°F13.9°C 52.0°F11.1°C 83% Calm Calm -- 29.35 in993.9 mb 0.00 in0.0 mm 0.00 in0.0 mm 0.00 in0.0 mm
08:25 AM 57.3°F14.1°C 52.3°F11.3°C 83% Calm Calm -- 29.36 in994.2 mb 0.00 in0.0 mm 0.00 in0.0 mm 0.00 in0.0 mm
08:30 AM 57.4°F14.1°C 52.0°F11.1°C 82% Calm Calm -- 29.36 in994.2 mb 0.00 in0.0 mm 0.00 in0.0 mm 0.00 in0.0 mm
08:35 AM 57.3°F14.1°C 52.3°F11.3°C 83% Calm Calm 4.0 mph6.4 kmh 29.35 in993.9 mb 0.00 in0.0 mm 0.00 in0.0 mm 0.00 in0.0 mm
08:40 AM 56.9°F13.8°C 51.8°F11.0°C 83% Calm Calm -- 29.35 in993.9 mb 0.00 in0.0 mm 0.00 in0.0 mm 0.00 in0.0 mm
08:45 AM 56.5°F13.6°C 51.6°F10.9°C 84% Calm Calm -- 29.36 in994.2 mb 0.00 in0.0 mm 0.00 in0.0 mm 0.00 in0.0 mm
08:50 AM 56.0°F13.3°C 51.4°F10.8°C 85% 12.0 mph SW19.3 kmh SW -- 29.36 in994.2 mb 0.02 in0.5 mm 0.24 in6.1 mm 0.02 in0.5 mm
08:55 AM 55.2°F12.9°C 51.8°F11.0°C 88% 12.0 mph SW19.3 kmh SW -- 29.37 in994.6 mb 0.04 in1.0 mm 0.24 in6.1 mm 0.04 in1.0 mm
09:00 AM 53.9°F12.2°C 50.2°F10.1°C 87% 10.0 mph SW16.1 kmh SW 32.0 mph51.5 kmh 29.38 in994.9 mb 0.04 in1.0 mm 0.00 in0.0 mm 0.04 in1.0 mm
09:05 AM 52.5°F11.4°C 48.4°F9.1°C 86% 18.0 mph SSW29.0 kmh SSW -- 29.38 in994.9 mb 0.04 in1.0 mm 0.00 in0.0 mm 0.04 in1.0 mm
09:10 AM 51.1°F10.6°C 45.9°F7.7°C 82% 15.0 mph SSW24.1 kmh SSW -- 29.39 in995.3 mb 0.04 in1.0 mm 0.00 in0.0 mm 0.04 in1.0 mm
09:15 AM 50.4°F10.2°C 44.8°F7.1°C 81% 20.0 mph SW32.2 kmh SW -- 29.39 in995.3 mb 0.04 in1.0 mm 0.00 in0.0 mm 0.04 in1.0 mm
09:20 AM 50.1°F10.1°C 43.9°F6.6°C 79% 29.0 mph SW46.7 kmh SW -- 29.39 in995.3 mb 0.04 in1.0 mm 0.00 in0.0 mm 0.04 in1.0 mm
09:25 AM 50.0°F10.0°C 42.8°F6.0°C 76% 11.0 mph SW17.7 kmh SW 33.0 mph53.1 kmh 29.39 in995.3 mb 0.04 in1.0 mm 0.00 in0.0 mm 0.04 in1.0 mm
09:30 AM 49.9°F9.9°C 41.5°F5.3°C 73% 13.0 mph WSW20.9 kmh WSW -- 29.39 in995.3 mb 0.04 in1.0 mm 0.00 in0.0 mm 0.04 in1.0 mm
09:35 AM 49.9°F9.9°C 40.8°F4.9°C 71% 12.0 mph SW19.3 kmh SW -- 29.40 in995.6 mb 0.04 in1.0 mm 0.00 in0.0 mm 0.04 in1.0 mm
09:40 AM 50.0°F10.0°C 41.0°F5.0°C 71% 16.0 mph S25.7 kmh S -- 29.40 in995.6 mb 0.04 in1.0 mm 0.00 in0.0 mm 0.04 in1.0 mm
09:45 AM 50.2°F10.1°C 41.5°F5.3°C 72% 12.0 mph SW19.3 kmh SW -- 29.40 in995.6 mb 0.04 in1.0 mm 0.00 in0.0 mm 0.04 in1.0 mm
09:50 AM 50.4°F10.2°C 41.4°F5.2°C 71% 6.0 mph SW9.7 kmh SW 26.0 mph41.8 kmh 29.41 in995.9 mb 0.02 in0.5 mm 0.00 in0.0 mm 0.04 in1.0 mm
09:55 AM 50.3°F10.2°C 40.3°F4.6°C 68% 17.0 mph SW27.4 kmh SW -- 29.41 in995.9 mb 0.00 in0.0 mm 0.00 in0.0 mm 0.04 in1.0 mm
10:00 AM 49.9°F9.9°C 39.4°F4.1°C 67% 19.0 mph SW30.6 kmh SW -- 29.42 in996.3 mb 0.00 in0.0 mm 0.00 in0.0 mm 0.04 in1.0 mm
10:05 AM 49.7°F9.8°C 39.9°F4.4°C 69% 18.0 mph WSW29.0 kmh WSW -- 29.42 in996.3 mb 0.00 in0.0 mm 0.00 in0.0 mm 0.04 in1.0 mm
10:10 AM 49.7°F9.8°C 39.2°F4.0°C 67% 7.0 mph SW11.3 kmh SW -- 29.42 in996.3 mb 0.00 in0.0 mm 0.00 in0.0 mm 0.04 in1.0 mm
10:15 AM 49.6°F9.8°C 39.2°F4.0°C 67% 22.0 mph SW35.4 kmh SW 33.0 mph53.1 kmh 29.43 in996.6 mb 0.00 in0.0 mm 0.00 in0.0 mm 0.04 in1.0 mm
10:20 AM 49.4°F9.7°C 38.7°F3.7°C 66% 24.0 mph WSW38.6 kmh WSW -- 29.43 in996.6 mb 0.00 in0.0 mm 0.00 in0.0 mm 0.04 in1.0 mm
10:25 AM 49.5°F9.7°C 39.0°F3.9°C 67% 17.0 mph WSW27.4 kmh WSW -- 29.44 in997.0 mb 0.00 in0.0 mm 0.00 in0.0 mm 0.04 in1.0 mm
10:30 AM 49.6°F9.8°C 38.8°F3.8°C 66% 20.0 mph SW32.2 kmh SW -- 29.44 in997.0 mb 0.00 in0.0 mm 0.00 in0.0 mm 0.04 in1.0 mm
10:35 AM 49.1°F9.5°C 38.3°F3.5°C 66% 9.0 mph SW14.5 kmh SW -- 29.45 in997.3 mb 0.00 in0.0 mm 0.00 in0.0 mm 0.04 in1.0 mm
10:40 AM 49.0°F9.4°C 38.5°F3.6°C 67% 14.0 mph SW22.5 kmh SW 33.0 mph53.1 kmh 29.45 in997.3 mb 0.00 in0.0 mm 0.00 in0.0 mm 0.04 in1.0 mm
10:45 AM 49.0°F9.4°C 38.5°F3.6°C 67% 23.0 mph SW37.0 kmh SW -- 29.45 in997.3 mb 0.00 in0.0 mm 0.00 in0.0 mm 0.04 in1.0 mm
10:50 AM 49.1°F9.5°C 38.3°F3.5°C 66% 11.0 mph SW17.7 kmh SW -- 29.46 in997.6 mb 0.00 in0.0 mm 0.00 in0.0 mm 0.04 in1.0 mm
10:55 AM 49.2°F9.6°C 37.9°F3.3°C 65% 15.0 mph SW24.1 kmh SW -- 29.46 in997.6 mb 0.00 in0.0 mm 0.00 in0.0 mm 0.04 in1.0 mm
11:00 AM 49.5°F9.7°C 38.1°F3.4°C 65% 4.0 mph SW6.4 kmh SW -- 29.46 in997.6 mb 0.00 in0.0 mm 0.00 in0.0 mm 0.04 in1.0 mm
11:05 AM 49.4°F9.7°C 38.1°F3.4°C 65% 11.0 mph SW17.7 kmh SW 33.0 mph53.1 kmh 29.47 in998.0 mb 0.00 in0.0 mm 0.00 in0.0 mm 0.04 in1.0 mm
11:10 AM 49.9°F9.9°C 38.5°F3.6°C 65% 19.0 mph SW30.6 kmh SW -- 29.48 in998.3 mb 0.00 in0.0 mm 0.00 in0.0 mm 0.04 in1.0 mm
11:15 AM 49.1°F9.5°C 37.8°F3.2°C 65% 18.0 mph SW29.0 kmh SW -- 29.48 in998.3 mb 0.00 in0.0 mm 0.00 in0.0 mm 0.04 in1.0 mm
11:20 AM 48.8°F9.3°C 37.6°F3.1°C 65% 15.0 mph SW24.1 kmh SW -- 29.49 in998.6 mb 0.00 in0.0 mm 0.00 in0.0 mm 0.04 in1.0 mm
11:25 AM 48.5°F9.2°C 36.5°F2.5°C 63% 14.0 mph SW22.5 kmh SW -- 29.50 in999.0 mb 0.00 in0.0 mm 0.00 in0.0 mm 0.04 in1.0 mm
11:30 AM 48.7°F9.3°C 38.3°F3.5°C 67% 13.0 mph WSW20.9 kmh WSW 40.0 mph64.4 kmh 29.50 in999.0 mb 0.00 in0.0 mm 0.00 in0.0 mm 0.04 in1.0 mm
11:35 AM 48.9°F9.4°C 35.6°F2.0°C 60% 26.0 mph SSW41.8 kmh SSW -- 29.49 in998.6 mb 0.00 in0.0 mm 0.00 in0.0 mm 0.04 in1.0 mm
11:40 AM 47.8°F8.8°C 35.4°F1.9°C 62% 31.0 mph S49.9 kmh S -- 29.51 in999.3 mb 0.00 in0.0 mm 0.00 in0.0 mm 0.04 in1.0 mm
11:45 AM 46.6°F8.1°C 34.3°F1.3°C 62% 13.0 mph SW20.9 kmh SW -- 29.51 in999.3 mb 0.00 in0.0 mm 0.00 in0.0 mm 0.04 in1.0 mm
11:50 AM 45.8°F7.7°C 34.0°F1.1°C 63% 11.0 mph SSW17.7 kmh SSW -- 29.51 in999.3 mb 0.00 in0.0 mm 0.00 in0.0 mm 0.04 in1.0 mm
11:55 AM 45.3°F7.4°C 34.3°F1.3°C 65% 8.0 mph SW12.9 kmh SW 44.0 mph70.8 kmh 29.52 in999.7 mb 0.00 in0.0 mm 0.00 in0.0 mm 0.04 in1.0 mm
12:00 PM 45.5°F7.5°C 34.9°F1.6°C 66% 30.0 mph SW48.3 kmh SW -- 29.51 in999.3 mb 0.00 in0.0 mm 0.00 in0.0 mm 0.04 in1.0 mm
12:05 PM 45.8°F7.7°C 35.6°F2.0°C 67% 32.0 mph SW51.5 kmh SW -- 29.51 in999.3 mb 0.00 in0.0 mm 0.00 in0.0 mm 0.04 in1.0 mm
12:10 PM 46.3°F7.9°C 35.1°F1.7°C 65% 14.0 mph SSW22.5 kmh SSW -- 29.52 in999.7 mb 0.00 in0.0 mm 0.00 in0.0 mm 0.04 in1.0 mm
12:15 PM 46.5°F8.1°C 35.8°F2.1°C 66% 10.0 mph SW16.1 kmh SW -- 29.52 in999.7 mb 0.00 in0.0 mm 0.00 in0.0 mm 0.04 in1.0 mm
12:20 PM 46.8°F8.2°C 35.2°F1.8°C 64% 14.0 mph SW22.5 kmh SW 40.0 mph64.4 kmh 29.51 in999.3 mb 0.00 in0.0 mm 0.00 in0.0 mm 0.04 in1.0 mm
12:25 PM 46.8°F8.2°C 35.2°F1.8°C 64% 16.0 mph SSW25.7 kmh SSW -- 29.52 in999.7 mb 0.00 in0.0 mm 0.00 in0.0 mm 0.04 in1.0 mm
12:30 PM 47.1°F8.4°C 36.0°F2.2°C 65% 10.0 mph SW16.1 kmh SW -- 29.52 in999.7 mb 0.00 in0.0 mm 0.00 in0.0 mm 0.04 in1.0 mm
12:35 PM 48.0°F8.9°C 36.5°F2.5°C 64% 12.0 mph SSW19.3 kmh SSW -- 29.52 in999.7 mb 0.00 in0.0 mm 0.00 in0.0 mm 0.04 in1.0 mm
12:40 PM 47.9°F8.8°C 36.7°F2.6°C 65% 6.0 mph SW9.7 kmh SW -- 29.52 in999.7 mb 0.00 in0.0 mm 0.00 in0.0 mm 0.04 in1.0 mm
12:45 PM 47.1°F8.4°C 34.7°F1.5°C 62% 15.0 mph SW24.1 kmh SW 34.0 mph54.7 kmh 29.52 in999.7 mb 0.00 in0.0 mm 0.00 in0.0 mm 0.04 in1.0 mm
12:50 PM 46.3°F7.9°C 34.3°F1.3°C 63% 9.0 mph SW14.5 kmh SW -- 29.53 in1000.0 mb 0.00 in0.0 mm 0.00 in0.0 mm 0.04 in1.0 mm
12:55 PM 45.8°F7.7°C 34.0°F1.1°C 63% 21.0 mph SSW33.8 kmh SSW -- 29.53 in1000.0 mb 0.00 in0.0 mm 0.00 in0.0 mm 0.04 in1.0 mm
01:00 PM 45.6°F7.6°C 34.5°F1.4°C 65% 7.0 mph SW11.3 kmh SW -- 29.54 in1000.3 mb 0.00 in0.0 mm 0.00 in0.0 mm 0.04 in1.0 mm
01:05 PM 45.6°F7.6°C 34.5°F1.4°C 65% 6.0 mph SW9.7 kmh SW -- 29.54 in1000.3 mb 0.00 in0.0 mm 0.00 in0.0 mm 0.04 in1.0 mm
01:10 PM 45.5°F7.5°C 34.3°F1.3°C 65% 22.0 mph WSW35.4 kmh WSW 33.0 mph53.1 kmh 29.54 in1000.3 mb 0.00 in0.0 mm 0.00 in0.0 mm 0.04 in1.0 mm
01:15 PM 45.5°F7.5°C 34.3°F1.3°C 65% 29.0 mph SW46.7 kmh SW -- 29.54 in1000.3 mb 0.00 in0.0 mm 0.00 in0.0 mm 0.04 in1.0 mm
01:20 PM 45.4°F7.4°C 34.3°F1.3°C 65% 15.0 mph SW24.1 kmh SW -- 29.54 in1000.3 mb 0.00 in0.0 mm 0.00 in0.0 mm 0.04 in1.0 mm
01:25 PM 45.3°F7.4°C 34.3°F1.3°C 65% 23.0 mph SSW37.0 kmh SSW -- 29.54 in1000.3 mb 0.00 in0.0 mm 0.00 in0.0 mm 0.04 in1.0 mm
01:30 PM 45.3°F7.4°C 34.3°F1.3°C 65% 22.0 mph SSW35.4 kmh SSW -- 29.54 in1000.3 mb 0.00 in0.0 mm 0.00 in0.0 mm 0.04 in1.0 mm
01:35 PM 45.2°F7.3°C 34.2°F1.2°C 65% 16.0 mph SSW25.7 kmh SSW 35.0 mph56.3 kmh 29.55 in1000.7 mb 0.00 in0.0 mm 0.00 in0.0 mm 0.04 in1.0 mm
01:40 PM 45.2°F7.3°C 34.2°F1.2°C 65% 20.0 mph SW32.2 kmh SW -- 29.55 in1000.7 mb 0.00 in0.0 mm 0.00 in0.0 mm 0.04 in1.0 mm
01:45 PM 45.2°F7.3°C 34.2°F1.2°C 65% 19.0 mph SW30.6 kmh SW -- 29.55 in1000.7 mb 0.00 in0.0 mm 0.00 in0.0 mm 0.04 in1.0 mm
01:50 PM 45.3°F7.4°C 34.3°F1.3°C 65% 10.0 mph SW16.1 kmh SW -- 29.55 in1000.7 mb 0.00 in0.0 mm 0.00 in0.0 mm 0.04 in1.0 mm
01:55 PM 45.4°F7.4°C 34.3°F1.3°C 65% 7.0 mph S11.3 kmh S -- 29.56 in1001.0 mb 0.00 in0.0 mm 0.00 in0.0 mm 0.04 in1.0 mm
02:00 PM 45.5°F7.5°C 34.3°F1.3°C 65% 12.0 mph SW19.3 kmh SW 34.0 mph54.7 kmh 29.56 in1001.0 mb 0.00 in0.0 mm 0.00 in0.0 mm 0.04 in1.0 mm
02:05 PM 45.5°F7.5°C 34.3°F1.3°C 65% 15.0 mph SSW24.1 kmh SSW -- 29.57 in1001.4 mb 0.00 in0.0 mm 0.00 in0.0 mm 0.04 in1.0 mm
02:10 PM 45.3°F7.4°C 33.8°F1.0°C 64% 4.0 mph SW6.4 kmh SW -- 29.56 in1001.0 mb 0.00 in0.0 mm 0.00 in0.0 mm 0.04 in1.0 mm
02:15 PM 45.3°F7.4°C 33.8°F1.0°C 64% 16.0 mph SW25.7 kmh SW -- 29.57 in1001.4 mb 0.00 in0.0 mm 0.00 in0.0 mm 0.04 in1.0 mm
02:20 PM 45.2°F7.3°C 34.2°F1.2°C 65% 15.0 mph S24.1 kmh S -- 29.57 in1001.4 mb 0.00 in0.0 mm 0.00 in0.0 mm 0.04 in1.0 mm
02:25 PM 45.2°F7.3°C 33.3°F0.7°C 63% 17.0 mph SW27.4 kmh SW 34.0 mph54.7 kmh 29.57 in1001.4 mb 0.00 in0.0 mm 0.00 in0.0 mm 0.04 in1.0 mm
02:30 PM 45.0°F7.2°C 33.1°F0.6°C 63% 16.0 mph WSW25.7 kmh WSW -- 29.58 in1001.7 mb 0.00 in0.0 mm 0.00 in0.0 mm 0.04 in1.0 mm
02:35 PM 44.9°F7.2°C 33.1°F0.6°C 63% 22.0 mph SW35.4 kmh SW -- 29.57 in1001.4 mb 0.00 in0.0 mm 0.00 in0.0 mm 0.04 in1.0 mm
02:40 PM 44.8°F7.1°C 33.4°F0.8°C 64% 10.0 mph SW16.1 kmh SW -- 29.58 in1001.7 mb 0.00 in0.0 mm 0.00 in0.0 mm 0.04 in1.0 mm
02:45 PM 44.7°F7.1°C 33.4°F0.8°C 64% 13.0 mph SW20.9 kmh SW -- 29.59 in1002.0 mb 0.00 in0.0 mm 0.00 in0.0 mm 0.04 in1.0 mm
02:50 PM 44.7°F7.1°C 33.8°F1.0°C 65% 8.0 mph SW12.9 kmh SW 31.0 mph49.9 kmh 29.59 in1002.0 mb 0.00 in0.0 mm 0.00 in0.0 mm 0.04 in1.0 mm
02:55 PM 44.6°F7.0°C 33.3°F0.7°C 64% 24.0 mph SW38.6 kmh SW -- 29.58 in1001.7 mb 0.00 in0.0 mm 0.00 in0.0 mm 0.04 in1.0 mm
03:00 PM 44.5°F6.9°C 33.1°F0.6°C 64% 13.0 mph WSW20.9 kmh WSW -- 29.58 in1001.7 mb 0.00 in0.0 mm 0.00 in0.0 mm 0.04 in1.0 mm
03:05 PM 44.5°F6.9°C 33.1°F0.6°C 64% 18.0 mph WSW29.0 kmh WSW -- 29.60 in1002.4 mb 0.00 in0.0 mm 0.00 in0.0 mm 0.04 in1.0 mm
03:10 PM 44.5°F6.9°C 33.4°F0.8°C 65% 25.0 mph WSW40.2 kmh WSW -- 29.59 in1002.0 mb 0.00 in0.0 mm 0.00 in0.0 mm 0.04 in1.0 mm
03:15 PM 44.4°F6.9°C 33.4°F0.8°C 65% 13.0 mph SSW20.9 kmh SSW 33.0 mph53.1 kmh 29.59 in1002.0 mb 0.00 in0.0 mm 0.00 in0.0 mm 0.04 in1.0 mm
03:20 PM 44.4°F6.9°C 33.1°F0.6°C 64% 19.0 mph SW30.6 kmh SW -- 29.60 in1002.4 mb 0.00 in0.0 mm 0.00 in0.0 mm 0.04 in1.0 mm
03:25 PM 44.4°F6.9°C 33.4°F0.8°C 65% 27.0 mph SW43.5 kmh SW -- 29.60 in1002.4 mb 0.00 in0.0 mm 0.00 in0.0 mm 0.04 in1.0 mm
03:30 PM 44.3°F6.8°C 32.9°F0.5°C 64% 14.0 mph SW22.5 kmh SW -- 29.60 in1002.4 mb 0.00 in0.0 mm 0.00 in0.0 mm 0.04 in1.0 mm
03:35 PM 44.2°F6.8°C 33.3°F0.7°C 65% 29.0 mph WSW46.7 kmh WSW -- 29.61 in1002.7 mb 0.00 in0.0 mm 0.00 in0.0 mm 0.04 in1.0 mm
03:40 PM 44.3°F6.8°C 32.9°F0.5°C 64% 19.0 mph WSW30.6 kmh WSW 37.0 mph59.5 kmh 29.61 in1002.7 mb 0.00 in0.0 mm 0.00 in0.0 mm 0.04 in1.0 mm
03:45 PM 44.3°F6.8°C 32.9°F0.5°C 64% 33.0 mph SW53.1 kmh SW -- 29.61 in1002.7 mb 0.00 in0.0 mm 0.00 in0.0 mm 0.04 in1.0 mm
03:50 PM 44.2°F6.8°C 32.9°F0.5°C 64% 11.0 mph SW17.7 kmh SW -- 29.62 in1003.0 mb 0.00 in0.0 mm 0.00 in0.0 mm 0.04 in1.0 mm
03:55 PM 44.2°F6.8°C 33.3°F0.7°C 65% 14.0 mph SW22.5 kmh SW -- 29.62 in1003.0 mb 0.00 in0.0 mm 0.00 in0.0 mm 0.04 in1.0 mm
04:00 PM 44.3°F6.8°C 33.3°F0.7°C 65% 8.0 mph SSW12.9 kmh SSW -- 29.63 in1003.4 mb 0.00 in0.0 mm 0.00 in0.0 mm 0.04 in1.0 mm
04:05 PM 44.3°F6.8°C 32.9°F0.5°C 64% 11.0 mph SW17.7 kmh SW 38.0 mph61.2 kmh 29.63 in1003.4 mb 0.00 in0.0 mm 0.00 in0.0 mm 0.04 in1.0 mm
04:10 PM 44.3°F6.8°C 32.9°F0.5°C 64% 18.0 mph WSW29.0 kmh WSW -- 29.63 in1003.4 mb 0.00 in0.0 mm 0.00 in0.0 mm 0.04 in1.0 mm
04:15 PM 44.2°F6.8°C 32.5°F0.3°C 63% 15.0 mph SW24.1 kmh SW -- 29.64 in1003.7 mb 0.00 in0.0 mm 0.00 in0.0 mm 0.04 in1.0 mm
04:20 PM 44.1°F6.7°C 32.7°F0.4°C 64% 19.0 mph SW30.6 kmh SW -- 29.64 in1003.7 mb 0.00 in0.0 mm 0.00 in0.0 mm 0.04 in1.0 mm
04:25 PM 44.0°F6.7°C 32.7°F0.4°C 64% 13.0 mph SSW20.9 kmh SSW -- 29.65 in1004.1 mb 0.00 in0.0 mm 0.00 in0.0 mm 0.04 in1.0 mm
04:30 PM 44.0°F6.7°C 32.7°F0.4°C 64% 10.0 mph SW16.1 kmh SW 33.0 mph53.1 kmh 29.65 in1004.1 mb 0.00 in0.0 mm 0.00 in0.0 mm 0.04 in1.0 mm
04:35 PM 43.9°F6.6°C 32.5°F0.3°C 64% 6.0 mph WSW9.7 kmh WSW -- 29.66 in1004.4 mb 0.00 in0.0 mm 0.00 in0.0 mm 0.04 in1.0 mm
04:40 PM 43.9°F6.6°C 32.5°F0.3°C 64% 7.0 mph SSE11.3 kmh SSE -- 29.66 in1004.4 mb 0.00 in0.0 mm 0.00 in0.0 mm 0.04 in1.0 mm
04:45 PM 43.9°F6.6°C 32.5°F0.3°C 64% 18.0 mph WSW29.0 kmh WSW -- 29.66 in1004.4 mb 0.00 in0.0 mm 0.00 in0.0 mm 0.04 in1.0 mm
04:50 PM 43.9°F6.6°C 32.5°F0.3°C 64% 16.0 mph WSW25.7 kmh WSW -- 29.66 in1004.4 mb 0.00 in0.0 mm 0.00 in0.0 mm 0.04 in1.0 mm
04:55 PM 43.9°F6.6°C 32.2°F0.1°C 63% 21.0 mph SW33.8 kmh SW 36.0 mph57.9 kmh 29.66 in1004.4 mb 0.00 in0.0 mm 0.00 in0.0 mm 0.04 in1.0 mm
05:00 PM 44.0°F6.7°C 32.7°F0.4°C 64% 6.0 mph SW9.7 kmh SW -- 29.66 in1004.4 mb 0.00 in0.0 mm 0.00 in0.0 mm 0.04 in1.0 mm
05:05 PM 44.1°F6.7°C 32.7°F0.4°C 64% 14.0 mph SW22.5 kmh SW -- 29.67 in1004.7 mb 0.00 in0.0 mm 0.00 in0.0 mm 0.04 in1.0 mm
05:10 PM 44.1°F6.7°C 32.7°F0.4°C 64% 7.0 mph S11.3 kmh S -- 29.66 in1004.4 mb 0.00 in0.0 mm 0.00 in0.0 mm 0.04 in1.0 mm
05:15 PM 44.2°F6.8°C 32.9°F0.5°C 64% 11.0 mph S17.7 kmh S -- 29.67 in1004.7 mb 0.00 in0.0 mm 0.00 in0.0 mm 0.04 in1.0 mm
05:20 PM 44.2°F6.8°C 32.9°F0.5°C 64% 14.0 mph SW22.5 kmh SW 37.0 mph59.5 kmh 29.66 in1004.4 mb 0.00 in0.0 mm 0.00 in0.0 mm 0.04 in1.0 mm
05:25 PM 44.1°F6.7°C 32.7°F0.4°C 64% 22.0 mph SSW35.4 kmh SSW -- 29.66 in1004.4 mb 0.00 in0.0 mm 0.00 in0.0 mm 0.04 in1.0 mm
05:30 PM 44.1°F6.7°C 32.7°F0.4°C 64% 9.0 mph NW14.5 kmh NW -- 29.67 in1004.7 mb 0.00 in0.0 mm 0.00 in0.0 mm 0.04 in1.0 mm
05:35 PM 44.0°F6.7°C 32.7°F0.4°C 64% 15.0 mph WSW24.1 kmh WSW -- 29.67 in1004.7 mb 0.00 in0.0 mm 0.00 in0.0 mm 0.04 in1.0 mm
05:40 PM 43.9°F6.6°C 32.5°F0.3°C 64% 12.0 mph SW19.3 kmh SW -- 29.68 in1005.1 mb 0.00 in0.0 mm 0.00 in0.0 mm 0.04 in1.0 mm
05:45 PM 43.8°F6.6°C 32.5°F0.3°C 64% 25.0 mph WSW40.2 kmh WSW 32.0 mph51.5 kmh 29.68 in1005.1 mb 0.00 in0.0 mm 0.00 in0.0 mm 0.04 in1.0 mm
05:50 PM 43.7°F6.5°C 32.4°F0.2°C 64% 8.0 mph WSW12.9 kmh WSW -- 29.68 in1005.1 mb 0.00 in0.0 mm 0.00 in0.0 mm 0.04 in1.0 mm
05:55 PM 43.6°F6.4°C 32.2°F0.1°C 64% 7.0 mph WSW11.3 kmh WSW -- 29.68 in1005.1 mb 0.00 in0.0 mm 0.00 in0.0 mm 0.04 in1.0 mm
06:00 PM 43.6°F6.4°C 32.2°F0.1°C 64% 20.0 mph SW32.2 kmh SW -- 29.68 in1005.1 mb 0.00 in0.0 mm 0.00 in0.0 mm 0.04 in1.0 mm
06:05 PM 43.6°F6.4°C 32.2°F0.1°C 64% 12.0 mph SW19.3 kmh SW -- 29.69 in1005.4 mb 0.00 in0.0 mm 0.00 in0.0 mm 0.04 in1.0 mm
06:10 PM 43.5°F6.4°C 32.2°F0.1°C 64% 31.0 mph WSW49.9 kmh WSW 36.0 mph57.9 kmh 29.69 in1005.4 mb 0.00 in0.0 mm 0.00 in0.0 mm 0.04 in1.0 mm
06:15 PM 43.5°F6.4°C 32.5°F0.3°C 65% 15.0 mph WSW24.1 kmh WSW -- 29.70 in1005.8 mb 0.00 in0.0 mm 0.00 in0.0 mm 0.04 in1.0 mm
06:20 PM 43.4°F6.3°C 32.4°F0.2°C 65% 25.0 mph WSW40.2 kmh WSW -- 29.71 in1006.1 mb 0.00 in0.0 mm 0.00 in0.0 mm 0.04 in1.0 mm
06:25 PM 43.2°F6.2°C 32.2°F0.1°C 65% 25.0 mph SW40.2 kmh SW -- 29.71 in1006.1 mb 0.00 in0.0 mm 0.00 in0.0 mm 0.04 in1.0 mm
06:30 PM 43.1°F6.2°C 32.2°F0.1°C 65% 17.0 mph SW27.4 kmh SW -- 29.71 in1006.1 mb 0.00 in0.0 mm 0.00 in0.0 mm 0.04 in1.0 mm
06:35 PM 42.9°F6.1°C 32.0°F0.0°C 65% 5.0 mph W8.0 kmh W 36.0 mph57.9 kmh 29.71 in1006.1 mb 0.00 in0.0 mm 0.00 in0.0 mm 0.04 in1.0 mm
06:40 PM 42.8°F6.0°C 31.8°F-0.1°C 65% 10.0 mph SW16.1 kmh SW -- 29.71 in1006.1 mb 0.00 in0.0 mm 0.00 in0.0 mm 0.04 in1.0 mm
06:45 PM 42.6°F5.9°C 31.6°F-0.2°C 65% 25.0 mph SW40.2 kmh SW -- 29.72 in1006.4 mb 0.00 in0.0 mm 0.00 in0.0 mm 0.04 in1.0 mm
06:50 PM 42.6°F5.9°C 31.6°F-0.2°C 65% 11.0 mph SW17.7 kmh SW -- 29.72 in1006.4 mb 0.00 in0.0 mm 0.00 in0.0 mm 0.04 in1.0 mm
06:55 PM 42.4°F5.8°C 31.8°F-0.1°C 66% 18.0 mph W29.0 kmh W -- 29.73 in1006.8 mb 0.00 in0.0 mm 0.00 in0.0 mm 0.04 in1.0 mm
07:00 PM 42.3°F5.7°C 31.6°F-0.2°C 66% 12.0 mph WSW19.3 kmh WSW 28.0 mph45.1 kmh 29.73 in1006.8 mb 0.00 in0.0 mm 0.00 in0.0 mm 0.04 in1.0 mm
07:05 PM 42.2°F5.7°C 32.2°F0.1°C 67% 7.0 mph SW11.3 kmh SW -- 29.74 in1007.1 mb 0.00 in0.0 mm 0.00 in0.0 mm 0.04 in1.0 mm
07:10 PM 42.1°F5.6°C 32.0°F0.0°C 67% 7.0 mph WSW11.3 kmh WSW -- 29.75 in1007.5 mb 0.00 in0.0 mm 0.00 in0.0 mm 0.04 in1.0 mm
07:15 PM 42.1°F5.6°C 32.0°F0.0°C 67% 9.0 mph WSW14.5 kmh WSW -- 29.75 in1007.5 mb 0.00 in0.0 mm 0.00 in0.0 mm 0.04 in1.0 mm
07:20 PM 42.0°F5.6°C 32.0°F0.0°C 67% 10.0 mph SW16.1 kmh SW -- 29.75 in1007.5 mb 0.00 in0.0 mm 0.00 in0.0 mm 0.04 in1.0 mm
07:25 PM 42.0°F5.6°C 32.4°F0.2°C 68% 11.0 mph WSW17.7 kmh WSW 20.0 mph32.2 kmh 29.75 in1007.5 mb 0.00 in0.0 mm 0.00 in0.0 mm 0.04 in1.0 mm
07:30 PM 42.0°F5.6°C 32.4°F0.2°C 68% 15.0 mph WSW24.1 kmh WSW -- 29.76 in1007.8 mb 0.00 in0.0 mm 0.00 in0.0 mm 0.04 in1.0 mm
07:35 PM 41.9°F5.5°C 32.2°F0.1°C 68% 15.0 mph SW24.1 kmh SW -- 29.75 in1007.5 mb 0.00 in0.0 mm 0.00 in0.0 mm 0.04 in1.0 mm
07:40 PM 41.9°F5.5°C 32.2°F0.1°C 68% 14.0 mph WSW22.5 kmh WSW -- 29.76 in1007.8 mb 0.00 in0.0 mm 0.00 in0.0 mm 0.04 in1.0 mm
07:45 PM 41.9°F5.5°C 32.2°F0.1°C 68% 14.0 mph SW22.5 kmh SW -- 29.76 in1007.8 mb 0.00 in0.0 mm 0.00 in0.0 mm 0.04 in1.0 mm
07:50 PM 41.8°F5.4°C 32.0°F0.0°C 68% 11.0 mph WSW17.7 kmh WSW 29.0 mph46.7 kmh 29.77 in1008.1 mb 0.00 in0.0 mm 0.00 in0.0 mm 0.04 in1.0 mm
07:55 PM 41.7°F5.4°C 32.0°F0.0°C 68% 11.0 mph WSW17.7 kmh WSW -- 29.77 in1008.1 mb 0.00 in0.0 mm 0.00 in0.0 mm 0.04 in1.0 mm
08:00 PM 41.7°F5.4°C 32.4°F0.2°C 69% 14.0 mph SW22.5 kmh SW -- 29.77 in1008.1 mb 0.00 in0.0 mm 0.00 in0.0 mm 0.04 in1.0 mm
08:05 PM 41.7°F5.4°C 32.0°F0.0°C 68% 22.0 mph SW35.4 kmh SW -- 29.77 in1008.1 mb 0.00 in0.0 mm 0.00 in0.0 mm 0.04 in1.0 mm
08:10 PM 41.7°F5.4°C 32.0°F0.0°C 68% 16.0 mph WSW25.7 kmh WSW -- 29.79 in1008.8 mb 0.00 in0.0 mm 0.00 in0.0 mm 0.04 in1.0 mm
08:15 PM 41.6°F5.3°C 31.8°F-0.1°C 68% 11.0 mph WSW17.7 kmh WSW 31.0 mph49.9 kmh 29.78 in1008.5 mb 0.00 in0.0 mm 0.00 in0.0 mm 0.04 in1.0 mm
08:20 PM 41.5°F5.3°C 32.2°F0.1°C 69% 18.0 mph SW29.0 kmh SW -- 29.79 in1008.8 mb 0.00 in0.0 mm 0.00 in0.0 mm 0.04 in1.0 mm
08:25 PM 41.5°F5.3°C 32.2°F0.1°C 69% 10.0 mph WSW16.1 kmh WSW -- 29.79 in1008.8 mb 0.00 in0.0 mm 0.00 in0.0 mm 0.04 in1.0 mm
08:30 PM 41.4°F5.2°C 32.0°F0.0°C 69% 7.0 mph WSW11.3 kmh WSW -- 29.80 in1009.1 mb 0.00 in0.0 mm 0.00 in0.0 mm 0.04 in1.0 mm
08:35 PM 41.3°F5.2°C 32.4°F0.2°C 70% 5.0 mph WSW8.0 kmh WSW -- 29.80 in1009.1 mb 0.00 in0.0 mm 0.00 in0.0 mm 0.04 in1.0 mm
08:40 PM 41.2°F5.1°C 32.2°F0.1°C 70% 21.0 mph WSW33.8 kmh WSW 30.0 mph48.3 kmh 29.80 in1009.1 mb 0.00 in0.0 mm 0.00 in0.0 mm 0.04 in1.0 mm
08:45 PM 41.1°F5.1°C 32.2°F0.1°C 70% 25.0 mph SW40.2 kmh SW -- 29.80 in1009.1 mb 0.00 in0.0 mm 0.00 in0.0 mm 0.04 in1.0 mm
08:50 PM 41.0°F5.0°C 32.0°F0.0°C 70% 11.0 mph WNW17.7 kmh WNW -- 29.81 in1009.5 mb 0.00 in0.0 mm 0.00 in0.0 mm 0.04 in1.0 mm
08:55 PM 41.0°F5.0°C 32.4°F0.2°C 71% 13.0 mph WSW20.9 kmh WSW -- 29.81 in1009.5 mb 0.00 in0.0 mm 0.00 in0.0 mm 0.04 in1.0 mm
09:00 PM 40.9°F4.9°C 32.2°F0.1°C 71% 7.0 mph SW11.3 kmh SW -- 29.82 in1009.8 mb 0.00 in0.0 mm 0.00 in0.0 mm 0.04 in1.0 mm
09:05 PM 40.9°F4.9°C 32.2°F0.1°C 71% 9.0 mph WSW14.5 kmh WSW 29.0 mph46.7 kmh 29.82 in1009.8 mb 0.00 in0.0 mm 0.00 in0.0 mm 0.04 in1.0 mm
09:10 PM 40.9°F4.9°C 32.2°F0.1°C 71% 13.0 mph WSW20.9 kmh WSW -- 29.82 in1009.8 mb 0.00 in0.0 mm 0.00 in0.0 mm 0.04 in1.0 mm
09:15 PM 40.8°F4.9°C 32.2°F0.1°C 71% 11.0 mph SW17.7 kmh SW -- 29.82 in1009.8 mb 0.00 in0.0 mm 0.00 in0.0 mm 0.04 in1.0 mm
09:20 PM 40.7°F4.8°C 32.0°F0.0°C 71% 12.0 mph SW19.3 kmh SW -- 29.83 in1010.2 mb 0.00 in0.0 mm 0.00 in0.0 mm 0.04 in1.0 mm
09:25 PM 40.7°F4.8°C 32.4°F0.2°C 72% 13.0 mph WSW20.9 kmh WSW -- 29.84 in1010.5 mb 0.00 in0.0 mm 0.00 in0.0 mm 0.04 in1.0 mm
09:30 PM 40.5°F4.7°C 32.5°F0.3°C 73% 12.0 mph SW19.3 kmh SW 21.0 mph33.8 kmh 29.83 in1010.2 mb 0.00 in0.0 mm 0.00 in0.0 mm 0.04 in1.0 mm
09:35 PM 40.3°F4.6°C 32.7°F0.4°C 74% 11.0 mph WSW17.7 kmh WSW -- 29.83 in1010.2 mb 0.00 in0.0 mm 0.00 in0.0 mm 0.04 in1.0 mm
09:40 PM 40.1°F4.5°C 32.9°F0.5°C 75% 7.0 mph WSW11.3 kmh WSW -- 29.84 in1010.5 mb 0.00 in0.0 mm 0.00 in0.0 mm 0.04 in1.0 mm
09:45 PM 39.9°F4.4°C 32.9°F0.5°C 76% 16.0 mph SW25.7 kmh SW -- 29.84 in1010.5 mb 0.00 in0.0 mm 0.00 in0.0 mm 0.04 in1.0 mm
09:50 PM 39.8°F4.3°C 32.7°F0.4°C 76% 7.0 mph SW11.3 kmh SW -- 29.84 in1010.5 mb 0.00 in0.0 mm 0.00 in0.0 mm 0.04 in1.0 mm
09:55 PM 39.8°F4.3°C 32.5°F0.3°C 75% 10.0 mph SW16.1 kmh SW 28.0 mph45.1 kmh 29.84 in1010.5 mb 0.00 in0.0 mm 0.00 in0.0 mm 0.04 in1.0 mm
10:00 PM 39.8°F4.3°C 32.5°F0.3°C 75% 5.0 mph SW8.0 kmh SW -- 29.84 in1010.5 mb 0.00 in0.0 mm 0.00 in0.0 mm 0.04 in1.0 mm
10:05 PM 39.8°F4.3°C 32.5°F0.3°C 75% 6.0 mph WSW9.7 kmh WSW -- 29.84 in1010.5 mb 0.00 in0.0 mm 0.00 in0.0 mm 0.04 in1.0 mm
10:10 PM 39.8°F4.3°C 32.5°F0.3°C 75% 11.0 mph SW17.7 kmh SW -- 29.84 in1010.5 mb 0.00 in0.0 mm 0.00 in0.0 mm 0.04 in1.0 mm
10:15 PM 39.7°F4.3°C 32.7°F0.4°C 76% 11.0 mph WSW17.7 kmh WSW -- 29.84 in1010.5 mb 0.00 in0.0 mm 0.00 in0.0 mm 0.04 in1.0 mm
10:20 PM 39.5°F4.2°C 32.4°F0.2°C 75% 8.0 mph SW12.9 kmh SW 31.0 mph49.9 kmh 29.85 in1010.8 mb 0.00 in0.0 mm 0.00 in0.0 mm 0.04 in1.0 mm
10:25 PM 39.4°F4.1°C 32.2°F0.1°C 75% 7.0 mph WSW11.3 kmh WSW -- 29.85 in1010.8 mb 0.00 in0.0 mm 0.00 in0.0 mm 0.04 in1.0 mm
10:30 PM 39.4°F4.1°C 31.8°F-0.1°C 74% 6.0 mph WSW9.7 kmh WSW -- 29.86 in1011.2 mb 0.00 in0.0 mm 0.00 in0.0 mm 0.04 in1.0 mm
10:35 PM 39.4°F4.1°C 31.8°F-0.1°C 74% 16.0 mph WSW25.7 kmh WSW -- 29.86 in1011.2 mb 0.00 in0.0 mm 0.00 in0.0 mm 0.04 in1.0 mm
10:40 PM 39.4°F4.1°C 31.8°F-0.1°C 74% 14.0 mph WSW22.5 kmh WSW -- 29.86 in1011.2 mb 0.00 in0.0 mm 0.00 in0.0 mm 0.04 in1.0 mm
10:45 PM 39.4°F4.1°C 31.8°F-0.1°C 74% 19.0 mph W30.6 kmh W 21.0 mph33.8 kmh 29.86 in1011.2 mb 0.00 in0.0 mm 0.00 in0.0 mm 0.04 in1.0 mm
10:50 PM 39.4°F4.1°C 31.8°F-0.1°C 74% 14.0 mph SW22.5 kmh SW -- 29.87 in1011.5 mb 0.00 in0.0 mm 0.00 in0.0 mm 0.04 in1.0 mm
10:55 PM 39.4°F4.1°C 31.8°F-0.1°C 74% 8.0 mph SW12.9 kmh SW -- 29.87 in1011.5 mb 0.00 in0.0 mm 0.00 in0.0 mm 0.04 in1.0 mm
11:00 PM 39.3°F4.1°C 31.8°F-0.1°C 74% 11.0 mph SW17.7 kmh SW -- 29.88 in1011.9 mb 0.00 in0.0 mm 0.00 in0.0 mm 0.04 in1.0 mm
11:05 PM 39.3°F4.1°C 31.5°F-0.3°C 73% 4.0 mph WSW6.4 kmh WSW -- 29.88 in1011.9 mb 0.00 in0.0 mm 0.00 in0.0 mm 0.04 in1.0 mm
11:10 PM 39.3°F4.1°C 31.8°F-0.1°C 74% 12.0 mph WSW19.3 kmh WSW 26.0 mph41.8 kmh 29.88 in1011.9 mb 0.00 in0.0 mm 0.00 in0.0 mm 0.04 in1.0 mm
11:15 PM 39.2°F4.0°C 31.6°F-0.2°C 74% 7.0 mph SW11.3 kmh SW -- 29.88 in1011.9 mb 0.00 in0.0 mm 0.00 in0.0 mm 0.04 in1.0 mm
11:20 PM 39.1°F3.9°C 31.1°F-0.5°C 73% 14.0 mph WSW22.5 kmh WSW -- 29.88 in1011.9 mb 0.00 in0.0 mm 0.00 in0.0 mm 0.04 in1.0 mm
11:25 PM 39.0°F3.9°C 31.5°F-0.3°C 74% 14.0 mph SW22.5 kmh SW -- 29.89 in1012.2 mb 0.00 in0.0 mm 0.00 in0.0 mm 0.04 in1.0 mm
11:30 PM 38.8°F3.8°C 31.6°F-0.2°C 75% 10.0 mph WSW16.1 kmh WSW -- 29.89 in1012.2 mb 0.00 in0.0 mm 0.00 in0.0 mm 0.04 in1.0 mm
11:35 PM 38.7°F3.7°C 31.5°F-0.3°C 75% 9.0 mph WSW14.5 kmh WSW 30.0 mph48.3 kmh 29.89 in1012.2 mb 0.00 in0.0 mm 0.00 in0.0 mm 0.04 in1.0 mm
11:40 PM 38.6°F3.7°C 31.5°F-0.3°C 75% 13.0 mph W20.9 kmh W -- 29.89 in1012.2 mb 0.00 in0.0 mm 0.00 in0.0 mm 0.04 in1.0 mm
11:45 PM 38.5°F3.6°C 31.3°F-0.4°C 75% 19.0 mph WSW30.6 kmh WSW -- 29.89 in1012.2 mb 0.00 in0.0 mm 0.00 in0.0 mm 0.04 in1.0 mm
11:50 PM 38.5°F3.6°C 31.3°F-0.4°C 75% 6.0 mph WSW9.7 kmh WSW -- 29.89 in1012.2 mb 0.00 in0.0 mm 0.00 in0.0 mm 0.04 in1.0 mm
11:55 PM 38.5°F3.6°C 31.3°F-0.4°C 75% 10.0 mph SW16.1 kmh SW -- 29.90 in1012.5 mb 0.00 in0.0 mm 0.00 in0.0 mm 0.04 in1.0 mm